createdAt,value
2019-02-22T00:00:11.928Z,177.30
2019-02-22T00:01:11.830Z,165.50
2019-02-22T00:02:11.727Z,169.30
2019-02-22T00:03:11.631Z,160.70
2019-02-22T00:04:11.543Z,170.30
2019-02-22T00:05:11.542Z,171.10
2019-02-22T00:06:11.329Z,163.10
2019-02-22T00:07:11.233Z,145.20
2019-02-22T00:08:11.133Z,169.90
2019-02-22T00:09:11.050Z,157.30
2019-02-22T00:10:10.948Z,157.30
2019-02-22T00:11:10.834Z,175.10
2019-02-22T00:12:10.842Z,167.00
2019-02-22T00:13:10.634Z,173.90
2019-02-22T00:14:10.554Z,163.30
2019-02-22T00:15:10.437Z,172.80
2019-02-22T00:16:10.340Z,189.90
2019-02-22T00:17:10.239Z,157.70
2019-02-22T00:18:10.142Z,162.70
2019-02-22T00:19:10.159Z,168.40
2019-02-22T00:20:09.941Z,176.20
2019-02-22T00:21:09.843Z,183.70
2019-02-22T00:22:09.744Z,177.00
2019-02-22T00:23:09.643Z,196.70
2019-02-22T00:24:09.561Z,175.00
2019-02-22T00:25:09.555Z,172.60
2019-02-22T00:26:11.125Z,180.10
2019-02-22T00:27:09.247Z,179.50
2019-02-22T00:28:09.149Z,190.90
2019-02-22T00:29:09.064Z,190.70
2019-02-22T00:30:08.948Z,192.40
2019-02-22T00:31:08.851Z,180.90
2019-02-22T00:32:08.752Z,193.40
2019-02-22T00:33:08.751Z,208.70
2019-02-22T00:34:08.569Z,212.50
2019-02-22T00:35:08.484Z,217.20
2019-02-22T00:36:08.431Z,237.10
2019-02-22T00:37:08.311Z,219.70
2019-02-22T00:38:08.156Z,218.70
2019-02-22T00:39:08.070Z,229.60
2019-02-22T00:40:07.963Z,220.90
2019-02-22T00:41:07.855Z,209.20
2019-02-22T00:42:07.755Z,240.20
2019-02-22T00:43:07.661Z,219.60
2019-02-22T00:44:07.578Z,243.10
2019-02-22T00:45:07.460Z,209.90
2019-02-22T00:46:07.379Z,206.30
2019-02-22T00:47:07.263Z,241.40
2019-02-22T00:48:07.161Z,243.60
2019-02-22T00:49:07.061Z,206.90
2019-02-22T00:50:06.978Z,224.00
2019-02-22T00:51:06.866Z,237.00
2019-02-22T00:52:06.767Z,219.00
2019-02-22T00:53:06.665Z,231.10
2019-02-22T00:54:06.577Z,219.50
2019-02-22T00:55:06.464Z,246.30
2019-02-22T00:56:06.367Z,231.90
2019-02-22T00:57:06.265Z,220.20
2019-02-22T00:58:06.167Z,243.00
2019-02-22T00:59:06.071Z,275.80
2019-02-22T01:00:05.988Z,279.10
2019-02-22T01:01:05.868Z,234.90
2019-02-22T01:02:05.770Z,251.10
2019-02-22T01:03:05.674Z,283.30
2019-02-22T01:04:05.575Z,244.40
2019-02-22T01:05:05.496Z,264.60
2019-02-22T01:06:05.372Z,312.00
2019-02-22T01:07:05.272Z,305.50
2019-02-22T01:08:05.174Z,262.50
2019-02-22T01:09:05.074Z,239.50
2019-02-22T01:10:04.992Z,220.70
2019-02-22T01:11:04.875Z,207.60
2019-02-22T01:12:04.777Z,243.10
2019-02-22T01:13:04.673Z,223.50
2019-02-22T01:14:04.579Z,211.50
2019-02-22T01:15:04.493Z,219.60
2019-02-22T01:16:04.379Z,230.80
2019-02-22T01:17:04.275Z,218.20
2019-02-22T01:18:04.192Z,258.90
2019-02-22T01:19:04.086Z,267.40
2019-02-22T01:20:04.009Z,268.60
2019-02-22T01:21:03.878Z,283.00
2019-02-22T01:22:03.786Z,245.70
2019-02-22T01:23:03.681Z,263.20
2019-02-22T01:24:03.582Z,371.30
2019-02-22T01:25:03.498Z,289.00
2019-02-22T01:26:03.386Z,345.40
2019-02-22T01:27:03.281Z,340.80
2019-02-22T01:28:03.194Z,348.90
2019-02-22T01:29:03.091Z,215.80
2019-02-22T01:30:03.003Z,322.80
2019-02-22T01:31:02.892Z,203.50
2019-02-22T01:32:02.787Z,170.40
2019-02-22T01:33:02.687Z,175.20
2019-02-22T01:34:02.592Z,171.30
2019-02-22T01:35:02.506Z,187.90
2019-02-22T01:36:02.406Z,183.90
2019-02-22T01:37:02.294Z,187.10
2019-02-22T01:38:02.195Z,185.80
2019-02-22T01:39:02.094Z,203.60
2019-02-22T01:40:02.062Z,205.70
2019-02-22T01:41:01.893Z,185.00
2019-02-22T01:42:01.799Z,196.70
2019-02-22T01:43:01.695Z,176.90
2019-02-22T01:44:01.597Z,178.00
2019-02-22T01:45:01.522Z,182.40
2019-02-22T01:46:01.398Z,159.40
2019-02-22T01:47:01.298Z,164.40
2019-02-22T01:48:01.197Z,160.50
2019-02-22T01:49:01.099Z,175.10
2019-02-22T01:50:01.013Z,187.60
2019-02-22T01:51:00.899Z,202.00
2019-02-22T01:52:00.798Z,247.50
2019-02-22T01:53:00.705Z,206.50
2019-02-22T01:54:00.602Z,185.60
2019-02-22T01:55:00.519Z,242.30
2019-02-22T01:56:00.502Z,255.40
2019-02-22T01:57:00.304Z,269.40
2019-02-22T01:58:00.202Z,271.10
2019-02-22T01:59:00.104Z,352.00
2019-02-22T02:00:00.019Z,156.00
2019-02-22T02:00:59.906Z,152.70
2019-02-22T02:01:59.806Z,174.30
2019-02-22T02:02:59.826Z,171.70
2019-02-22T02:03:59.606Z,174.40
2019-02-22T02:04:59.522Z,200.90
2019-02-22T02:05:59.408Z,181.90
2019-02-22T02:06:59.307Z,230.20
2019-02-22T02:07:59.213Z,203.00
2019-02-22T02:08:59.110Z,207.40
2019-02-22T02:09:59.133Z,201.50
2019-02-22T02:10:58.911Z,238.80
2019-02-22T02:11:58.813Z,221.30
2019-02-22T02:12:58.716Z,181.90
2019-02-22T02:13:58.615Z,222.70
2019-02-22T02:14:58.528Z,259.10
2019-02-22T02:15:58.412Z,252.20
2019-02-22T02:16:58.423Z,221.70
2019-02-22T02:17:58.217Z,222.30
2019-02-22T02:18:58.116Z,224.50
2019-02-22T02:19:58.034Z,244.60
2019-02-22T02:20:57.915Z,286.40
2019-02-22T02:21:57.816Z,234.10
2019-02-22T02:22:57.722Z,228.30
2019-02-22T02:23:57.725Z,227.80
2019-02-22T02:24:57.535Z,210.00
2019-02-22T02:25:57.420Z,144.20
2019-02-22T02:26:57.320Z,168.30
2019-02-22T02:27:57.222Z,182.30
2019-02-22T02:28:57.122Z,199.10
2019-02-22T02:29:57.040Z,278.60
2019-02-22T02:30:57.037Z,220.20
2019-02-22T02:31:56.825Z,210.50
2019-02-22T02:32:56.726Z,265.00
2019-02-22T02:33:56.633Z,341.50
2019-02-22T02:34:56.544Z,352.20
2019-02-22T02:35:56.427Z,428.30
2019-02-22T02:36:56.337Z,612.90
2019-02-22T02:37:56.328Z,785.40
2019-02-22T02:38:56.137Z,851.50
2019-02-22T02:39:56.047Z,984.30
2019-02-22T02:41:08.075Z,871.30
2019-02-22T02:41:55.829Z,851.90
2019-02-22T02:42:55.730Z,781.00
2019-02-22T02:43:55.629Z,860.50
2019-02-22T02:44:55.634Z,908.40
2019-02-22T02:45:55.449Z,864.90
2019-02-22T02:46:55.332Z,1060.30
2019-02-22T02:47:55.233Z,903.00
2019-02-22T02:48:55.138Z,1046.40
2019-02-22T02:49:55.061Z,1306.40
2019-02-22T02:50:54.953Z,1312.40
2019-02-22T02:51:54.937Z,1129.20
2019-02-22T02:52:54.738Z,1140.50
2019-02-22T02:53:54.637Z,1012.40
2019-02-22T02:54:54.541Z,951.40
2019-02-22T02:55:54.459Z,956.50
2019-02-22T02:56:54.342Z,1288.80
2019-02-22T02:57:54.240Z,798.00
2019-02-22T02:58:54.243Z,886.30
2019-02-22T02:59:54.045Z,765.60
2019-02-22T03:00:53.958Z,572.30
2019-02-22T03:01:53.844Z,921.70
2019-02-22T03:02:53.745Z,1268.90
2019-02-22T03:03:53.645Z,1047.40
2019-02-22T03:04:53.669Z,1280.20
2019-02-22T03:05:53.462Z,1174.00
2019-02-22T03:06:53.345Z,1297.50
2019-02-22T03:07:53.248Z,1083.00
2019-02-22T03:08:53.149Z,518.50
2019-02-22T03:09:53.051Z,590.20
2019-02-22T03:10:52.966Z,850.30
2019-02-22T03:11:52.860Z,1228.80
2019-02-22T03:12:52.752Z,1254.90
2019-02-22T03:13:52.652Z,1094.00
2019-02-22T03:14:52.552Z,1099.00
2019-02-22T03:15:52.473Z,1285.70
2019-02-22T03:16:52.353Z,1290.40
2019-02-22T03:17:52.255Z,1157.10
2019-02-22T03:18:52.158Z,398.80
2019-02-22T03:19:52.055Z,750.50
2019-02-22T03:20:51.975Z,617.50
2019-02-22T03:21:51.867Z,728.00
2019-02-22T03:22:51.762Z,333.40
2019-02-22T03:23:51.714Z,180.90
2019-02-22T03:24:53.699Z,229.30
2019-02-22T03:25:51.481Z,257.20
2019-02-22T03:26:51.361Z,296.10
2019-02-22T03:27:51.260Z,168.50
2019-02-22T03:28:51.162Z,149.40
2019-02-22T03:29:51.066Z,190.70
2019-02-22T03:30:50.989Z,188.90
2019-02-22T03:31:50.866Z,203.20
2019-02-22T03:32:50.765Z,230.00
2019-02-22T03:33:50.668Z,187.80
2019-02-22T03:34:50.568Z,167.60
2019-02-22T03:35:50.486Z,164.40
2019-02-22T03:36:50.367Z,175.10
2019-02-22T03:37:50.267Z,148.20
2019-02-22T03:38:50.175Z,155.10
2019-02-22T03:39:50.076Z,129.60
2019-02-22T03:40:49.989Z,145.80
2019-02-22T03:41:49.872Z,141.50
2019-02-22T03:42:49.776Z,132.10
2019-02-22T03:43:49.675Z,142.40
2019-02-22T03:44:49.574Z,149.10
2019-02-22T03:45:49.492Z,164.60
2019-02-22T03:46:49.374Z,172.60
2019-02-22T03:47:49.276Z,161.30
2019-02-22T03:48:49.175Z,168.70
2019-02-22T03:49:49.077Z,141.50
2019-02-22T03:50:48.998Z,157.80
2019-02-22T03:51:48.880Z,152.60
2019-02-22T03:52:48.782Z,169.70
2019-02-22T03:53:48.685Z,156.90
2019-02-22T03:54:48.580Z,166.00
2019-02-22T03:55:48.499Z,174.70
2019-02-22T03:56:48.383Z,170.40
2019-02-22T03:57:48.285Z,175.10
2019-02-22T03:58:48.184Z,200.80
2019-02-22T03:59:50.931Z,281.40
2019-02-22T04:00:48.005Z,143.90
2019-02-22T04:01:47.888Z,144.10
2019-02-22T04:02:47.788Z,156.20
2019-02-22T04:03:47.690Z,154.40
2019-02-22T04:04:47.588Z,103.20
2019-02-22T04:05:47.521Z,125.20
2019-02-22T04:06:47.388Z,126.30
2019-02-22T04:07:47.293Z,140.90
2019-02-22T04:08:47.192Z,145.30
2019-02-22T04:09:47.095Z,123.40
2019-02-22T04:10:47.016Z,95.40
2019-02-22T04:11:46.895Z,59.60
2019-02-22T04:12:46.797Z,77.50
2019-02-22T04:13:46.701Z,86.20
2019-02-22T04:14:46.600Z,86.30
2019-02-22T04:15:46.513Z,104.70
2019-02-22T04:16:46.400Z,96.80
2019-02-22T04:17:46.310Z,101.00
2019-02-22T04:18:46.199Z,117.70
2019-02-22T04:19:46.104Z,105.50
2019-02-22T04:20:46.019Z,114.80
2019-02-22T04:21:45.902Z,118.00
2019-02-22T04:22:45.803Z,124.30
2019-02-22T04:23:45.702Z,101.30
2019-02-22T04:24:45.605Z,113.70
2019-02-22T04:25:45.504Z,115.40
2019-02-22T04:26:45.418Z,98.20
2019-02-22T04:27:45.321Z,103.80
2019-02-22T04:28:45.207Z,107.80
2019-02-22T04:29:45.105Z,99.80
2019-02-22T04:30:45.022Z,91.30
2019-02-22T04:31:44.924Z,98.20
2019-02-22T04:32:44.810Z,111.80
2019-02-22T04:33:44.708Z,77.10
2019-02-22T04:34:44.610Z,83.70
2019-02-22T04:35:44.517Z,86.40
2019-02-22T04:36:44.425Z,88.90
2019-02-22T04:37:44.315Z,67.90
2019-02-22T04:38:44.217Z,67.00
2019-02-22T04:39:44.115Z,70.10
2019-02-22T04:40:44.015Z,75.30
2019-02-22T04:41:43.930Z,72.90
2019-02-22T04:42:43.917Z,73.40
2019-02-22T04:43:43.717Z,61.10
2019-02-22T04:44:43.617Z,61.30
2019-02-22T04:45:43.523Z,59.00
2019-02-22T04:46:43.437Z,55.40
2019-02-22T04:47:43.322Z,60.80
2019-02-22T04:48:43.219Z,63.40
2019-02-22T04:49:43.132Z,62.50
2019-02-22T04:50:43.023Z,60.70
2019-02-22T04:51:42.939Z,61.60
2019-02-22T04:52:42.822Z,67.00
2019-02-22T04:53:42.723Z,63.10
2019-02-22T04:54:42.630Z,68.40
2019-02-22T04:55:42.524Z,71.70
2019-02-22T04:56:42.555Z,66.20
2019-02-22T04:57:42.327Z,65.30
2019-02-22T04:58:42.230Z,67.10
2019-02-22T04:59:42.129Z,59.90
2019-02-22T05:00:42.029Z,59.90
2019-02-22T05:01:41.945Z,64.30
2019-02-22T05:02:41.842Z,76.20
2019-02-22T05:03:41.853Z,67.20
2019-02-22T05:04:41.632Z,62.30
2019-02-22T05:05:41.531Z,59.40
2019-02-22T05:06:41.452Z,60.50
2019-02-22T05:07:41.336Z,65.70
2019-02-22T05:08:41.237Z,69.60
2019-02-22T05:09:41.136Z,73.80
2019-02-22T05:10:41.134Z,72.60
2019-02-22T05:11:40.952Z,64.10
2019-02-22T05:12:40.834Z,57.00
2019-02-22T05:13:40.737Z,59.70
2019-02-22T05:14:40.648Z,67.50
2019-02-22T05:15:40.538Z,67.90
2019-02-22T05:16:40.454Z,66.80
2019-02-22T05:17:40.438Z,69.80
2019-02-22T05:18:40.240Z,69.20
2019-02-22T05:19:40.145Z,60.30
2019-02-22T05:20:40.043Z,58.10
2019-02-22T05:21:39.990Z,63.10
2019-02-22T05:22:39.851Z,59.90
2019-02-22T05:23:39.745Z,68.40
2019-02-22T05:24:39.649Z,66.10
2019-02-22T05:25:39.548Z,67.80
2019-02-22T05:26:39.464Z,67.30
2019-02-22T05:27:39.343Z,64.30
2019-02-22T05:28:39.244Z,75.40
2019-02-22T05:29:39.145Z,69.30
2019-02-22T05:30:39.051Z,76.70
2019-02-22T05:31:38.966Z,68.40
2019-02-22T05:32:38.849Z,64.70
2019-02-22T05:33:38.752Z,67.30
2019-02-22T05:34:38.652Z,62.60
2019-02-22T05:35:38.552Z,66.70
2019-02-22T05:36:38.471Z,71.40
2019-02-22T05:37:38.355Z,65.40
2019-02-22T05:38:38.249Z,67.00
2019-02-22T05:39:38.153Z,58.50
2019-02-22T05:40:38.073Z,66.90
2019-02-22T05:41:37.977Z,67.10
2019-02-22T05:42:37.859Z,78.20
2019-02-22T05:43:37.756Z,65.90
2019-02-22T05:44:37.653Z,59.10
2019-02-22T05:45:37.556Z,58.90
2019-02-22T05:46:37.477Z,54.60
2019-02-22T05:47:37.355Z,53.30
2019-02-22T05:48:38.877Z,51.30
2019-02-22T05:49:37.159Z,49.20
2019-02-22T05:50:37.064Z,46.50
2019-02-22T05:51:36.979Z,48.90
2019-02-22T05:52:36.862Z,45.40
2019-02-22T05:53:37.076Z,44.00
2019-02-22T05:54:36.660Z,41.60
2019-02-22T05:55:36.562Z,47.20
2019-02-22T05:56:36.479Z,50.30
2019-02-22T05:57:36.366Z,53.50
2019-02-22T05:58:36.269Z,47.10
2019-02-22T05:59:36.166Z,45.40
2019-02-22T06:00:36.175Z,41.60
2019-02-22T06:01:35.988Z,41.10
2019-02-22T06:02:35.866Z,46.00
2019-02-22T06:03:35.767Z,44.00
2019-02-22T06:04:35.667Z,43.20
2019-02-22T06:05:35.572Z,42.90
2019-02-22T06:06:35.490Z,46.80
2019-02-22T06:07:35.370Z,45.60
2019-02-22T06:08:35.269Z,50.50
2019-02-22T06:09:35.173Z,51.60
2019-02-22T06:10:35.070Z,44.30
2019-02-22T06:11:35.108Z,48.50
2019-02-22T06:12:35.171Z,50.40
2019-02-22T06:13:34.775Z,46.20
2019-02-22T06:14:34.673Z,37.60
2019-02-22T06:15:34.578Z,40.00
2019-02-22T06:16:34.480Z,44.90
2019-02-22T06:17:34.401Z,46.70
2019-02-22T06:18:34.277Z,47.80
2019-02-22T06:19:34.178Z,45.10
2019-02-22T06:20:34.076Z,41.60
2019-02-22T06:21:33.978Z,43.40
2019-02-22T06:22:33.899Z,43.30
2019-02-22T06:23:33.780Z,38.10
2019-02-22T06:24:33.693Z,40.10
2019-02-22T06:25:33.582Z,37.90
2019-02-22T06:26:33.481Z,41.80
2019-02-22T06:27:33.401Z,41.00
2019-02-22T06:28:33.285Z,43.60
2019-02-22T06:29:33.183Z,42.80
2019-02-22T06:30:33.087Z,47.10
2019-02-22T06:31:32.987Z,48.10
2019-02-22T06:32:32.900Z,41.60
2019-02-22T06:33:32.788Z,47.00
2019-02-22T06:34:32.691Z,49.00
2019-02-22T06:35:32.587Z,43.30
2019-02-22T06:36:32.494Z,40.90
2019-02-22T06:37:32.408Z,44.10
2019-02-22T06:38:32.290Z,48.80
2019-02-22T06:39:32.195Z,45.00
2019-02-22T06:40:32.092Z,44.10
2019-02-22T06:41:31.992Z,40.70
2019-02-22T06:42:31.911Z,49.40
2019-02-22T06:43:31.794Z,43.90
2019-02-22T06:44:31.696Z,42.10
2019-02-22T06:45:31.595Z,41.00
2019-02-22T06:46:31.497Z,45.00
2019-02-22T06:47:31.415Z,41.70
2019-02-22T06:48:31.299Z,45.90
2019-02-22T06:49:31.195Z,46.10
2019-02-22T06:50:34.026Z,47.10
2019-02-22T06:51:31.001Z,45.50
2019-02-22T06:52:30.918Z,40.50
2019-02-22T06:53:30.797Z,34.50
2019-02-22T06:54:30.698Z,40.00
2019-02-22T06:55:30.616Z,37.80
2019-02-22T06:56:30.499Z,34.30
2019-02-22T06:57:30.421Z,30.40
2019-02-22T06:58:30.306Z,28.20
2019-02-22T06:59:30.203Z,28.90
2019-02-22T07:00:30.110Z,31.10
2019-02-22T07:01:30.005Z,33.40
2019-02-22T07:02:29.922Z,33.70
2019-02-22T07:03:29.813Z,36.10
2019-02-22T07:04:29.707Z,32.70
2019-02-22T07:05:29.606Z,35.80
2019-02-22T07:06:29.509Z,32.20
2019-02-22T07:07:29.436Z,32.60
2019-02-22T07:08:29.315Z,33.40
2019-02-22T07:09:29.210Z,30.80
2019-02-22T07:10:29.111Z,29.10
2019-02-22T07:11:29.010Z,26.70
2019-02-22T07:12:28.955Z,26.20
2019-02-22T07:13:28.811Z,25.50
2019-02-22T07:14:28.710Z,28.60
2019-02-22T07:15:28.615Z,28.30
2019-02-22T07:16:28.520Z,27.60
2019-02-22T07:17:28.435Z,27.40
2019-02-22T07:18:28.320Z,23.00
2019-02-22T07:19:28.216Z,22.80
2019-02-22T07:20:28.119Z,24.30
2019-02-22T07:21:38.863Z,22.30
2019-02-22T07:22:27.940Z,24.50
2019-02-22T07:23:27.821Z,21.40
2019-02-22T07:24:27.722Z,19.70
2019-02-22T07:25:27.623Z,21.50
2019-02-22T07:26:27.522Z,19.30
2019-02-22T07:27:27.430Z,19.30
2019-02-22T07:28:27.340Z,18.60
2019-02-22T07:29:27.224Z,17.60
2019-02-22T07:30:27.126Z,18.40
2019-02-22T07:31:27.024Z,14.90
2019-02-22T07:32:26.946Z,16.40
2019-02-22T07:33:26.827Z,15.30
2019-02-22T07:34:26.743Z,16.50
2019-02-22T07:35:26.637Z,16.20
2019-02-22T07:36:26.530Z,17.80
2019-02-22T07:37:26.436Z,15.60
2019-02-22T07:38:26.355Z,15.30
2019-02-22T07:39:28.182Z,14.30
2019-02-22T07:40:26.132Z,14.60
2019-02-22T07:41:26.031Z,15.20
2019-02-22T07:42:25.987Z,15.90
2019-02-22T07:43:25.853Z,13.30
2019-02-22T07:44:25.847Z,14.40
2019-02-22T07:45:25.636Z,13.40
2019-02-22T07:46:25.541Z,12.00
2019-02-22T07:47:25.443Z,11.20
2019-02-22T07:48:25.357Z,11.60
2019-02-22T07:49:25.241Z,11.60
2019-02-22T07:50:25.141Z,13.70
2019-02-22T07:51:25.144Z,13.80
2019-02-22T07:52:24.992Z,13.40
2019-02-22T07:53:24.863Z,12.00
2019-02-22T07:54:24.747Z,9.70
2019-02-22T07:55:24.650Z,11.90
2019-02-22T07:56:24.544Z,10.00
2019-02-22T07:57:24.446Z,10.10
2019-02-22T07:58:24.471Z,8.00
2019-02-22T07:59:24.252Z,7.40
2019-02-22T08:00:24.165Z,7.10
2019-02-22T08:01:26.894Z,7.20
2019-02-22T08:02:23.954Z,6.40
2019-02-22T08:03:23.883Z,4.70
2019-02-22T08:04:23.756Z,3.80
2019-02-22T08:05:23.757Z,4.50
2019-02-22T08:06:23.557Z,3.60
2019-02-22T08:07:23.459Z,3.40
2019-02-22T08:08:23.383Z,3.50
2019-02-22T08:09:23.259Z,3.40
2019-02-22T08:10:23.161Z,2.90
2019-02-22T08:11:23.063Z,2.50
2019-02-22T08:12:23.089Z,3.00
2019-02-22T08:13:22.871Z,3.40
2019-02-22T08:14:22.787Z,3.40
2019-02-22T08:15:22.671Z,3.30
2019-02-22T08:16:22.568Z,3.30
2019-02-22T08:17:22.471Z,4.10
2019-02-22T08:18:22.375Z,3.90
2019-02-22T08:19:22.388Z,4.20
2019-02-22T08:20:22.178Z,4.40
2019-02-22T08:21:22.079Z,4.90
2019-02-22T08:22:21.985Z,4.60
2019-02-22T08:23:21.876Z,5.20
2019-02-22T08:24:21.794Z,4.80
2019-02-22T08:25:21.677Z,4.90
2019-02-22T08:26:21.734Z,5.40
2019-02-22T08:27:21.493Z,5.50
2019-02-22T08:28:21.386Z,5.50
2019-02-22T08:29:21.300Z,6.30
2019-02-22T08:30:21.189Z,6.40
2019-02-22T08:31:21.085Z,5.30
2019-02-22T08:32:20.989Z,6.20
2019-02-22T08:33:21.006Z,5.20
2019-02-22T08:34:20.805Z,5.70
2019-02-22T08:35:20.690Z,5.80
2019-02-22T08:36:20.591Z,4.90
2019-02-22T08:37:20.494Z,5.50
2019-02-22T08:38:20.396Z,5.60
2019-02-22T08:39:20.313Z,4.60
2019-02-22T08:40:20.313Z,5.30
2019-02-22T08:41:20.113Z,3.90
2019-02-22T08:42:19.998Z,5.30
2019-02-22T08:43:30.738Z,5.00
2019-02-22T08:44:19.818Z,5.60
2019-02-22T08:45:19.714Z,5.60
2019-02-22T08:46:19.608Z,5.30
2019-02-22T08:47:19.609Z,5.90
2019-02-22T08:48:19.406Z,5.10
2019-02-22T08:49:19.323Z,5.10
2019-02-22T08:50:19.211Z,4.80
2019-02-22T08:51:19.117Z,4.80
2019-02-22T08:52:19.014Z,4.60
2019-02-22T08:53:19.047Z,4.70
2019-02-22T08:54:18.831Z,4.70
2019-02-22T08:55:18.728Z,5.60
2019-02-22T08:56:18.618Z,5.30
2019-02-22T08:57:18.518Z,5.40
2019-02-22T08:58:18.420Z,5.60
2019-02-22T08:59:18.338Z,5.00
2019-02-22T09:00:18.223Z,5.00
2019-02-22T09:01:18.124Z,4.80
2019-02-22T09:02:18.026Z,4.40
2019-02-22T09:03:17.934Z,4.60
2019-02-22T09:04:17.844Z,4.30
2019-02-22T09:05:17.734Z,4.10
2019-02-22T09:06:17.631Z,4.50
2019-02-22T09:07:17.531Z,3.80
2019-02-22T09:08:17.433Z,3.20
2019-02-22T09:09:17.350Z,2.90
2019-02-22T09:10:17.235Z,3.00
2019-02-22T09:11:17.143Z,3.50
2019-02-22T09:12:17.041Z,3.30
2019-02-22T09:13:16.941Z,4.10
2019-02-22T09:14:16.862Z,3.80
2019-02-22T09:15:16.746Z,3.60
2019-02-22T09:16:16.647Z,3.50
2019-02-22T09:17:16.551Z,3.20
2019-02-22T09:18:16.450Z,3.30
2019-02-22T09:19:16.372Z,3.70
2019-02-22T09:20:16.334Z,3.50
2019-02-22T09:21:16.187Z,3.10
2019-02-22T09:22:22.811Z,3.50
2019-02-22T09:23:15.957Z,3.60
2019-02-22T09:24:15.873Z,3.50
2019-02-22T09:25:15.852Z,3.70
2019-02-22T09:26:15.660Z,4.20
2019-02-22T09:27:15.561Z,4.00
2019-02-22T09:28:15.461Z,3.90
2019-02-22T09:29:15.384Z,3.70
2019-02-22T09:30:15.272Z,3.40
2019-02-22T09:31:15.170Z,3.70
2019-02-22T09:32:15.069Z,3.70
2019-02-22T09:33:14.971Z,3.20
2019-02-22T09:34:14.887Z,3.40
2019-02-22T09:35:14.772Z,3.40
2019-02-22T09:36:14.679Z,3.40
2019-02-22T09:37:14.575Z,3.60
2019-02-22T09:38:14.479Z,4.00
2019-02-22T09:39:14.397Z,3.90
2019-02-22T09:40:14.901Z,4.10
2019-02-22T09:41:14.185Z,3.90
2019-02-22T09:42:14.089Z,3.80
2019-02-22T09:43:13.986Z,4.30
2019-02-22T09:44:13.893Z,4.40
2019-02-22T09:45:13.811Z,5.20
2019-02-22T09:46:13.693Z,4.80
2019-02-22T09:47:13.591Z,4.90
2019-02-22T09:48:13.494Z,5.50
2019-02-22T09:49:13.398Z,5.50
2019-02-22T09:50:13.318Z,5.00
2019-02-22T09:51:13.198Z,6.10
2019-02-22T09:52:13.101Z,5.90
2019-02-22T09:53:13.005Z,5.50
2019-02-22T09:54:12.906Z,5.70
2019-02-22T09:55:12.820Z,5.50
2019-02-22T09:56:12.705Z,4.70
2019-02-22T09:57:12.607Z,5.60
2019-02-22T09:58:12.510Z,4.70
2019-02-22T09:59:12.413Z,4.50
2019-02-22T10:00:12.329Z,4.10
2019-02-22T10:01:12.212Z,3.50
2019-02-22T10:02:12.115Z,3.00
2019-02-22T10:03:12.017Z,3.40
2019-02-22T10:04:11.919Z,3.40
2019-02-22T10:05:11.837Z,3.40
2019-02-22T10:06:11.721Z,3.40
2019-02-22T10:07:11.624Z,2.70
2019-02-22T10:08:11.525Z,2.40
2019-02-22T10:09:11.429Z,2.90
2019-02-22T10:10:11.347Z,2.70
2019-02-22T10:11:11.231Z,2.80
2019-02-22T10:12:11.134Z,2.50
2019-02-22T10:13:11.035Z,3.20
2019-02-22T10:14:10.932Z,3.70
2019-02-22T10:15:10.939Z,3.30
2019-02-22T10:16:10.737Z,2.80
2019-02-22T10:17:10.642Z,3.40
2019-02-22T10:18:10.539Z,4.80
2019-02-22T10:19:10.445Z,4.30
2019-02-22T10:20:10.378Z,4.70
2019-02-22T10:21:10.245Z,4.30
2019-02-22T10:22:10.147Z,4.40
2019-02-22T10:23:10.047Z,4.40
2019-02-22T10:24:10.054Z,4.80
2019-02-22T10:25:09.869Z,4.40
2019-02-22T10:26:09.751Z,4.70
2019-02-22T10:27:12.038Z,4.80
2019-02-22T10:28:17.317Z,4.80
2019-02-22T10:29:09.462Z,5.40
2019-02-22T10:30:09.373Z,5.00
2019-02-22T10:31:09.378Z,4.60
2019-02-22T10:32:09.159Z,4.30
2019-02-22T10:33:09.072Z,4.50
2019-02-22T10:34:08.967Z,4.30
2019-02-22T10:35:08.884Z,3.70
2019-02-22T10:36:08.767Z,3.70
2019-02-22T10:37:08.673Z,10.20
2019-02-22T10:38:08.690Z,32.00
2019-02-22T10:39:08.479Z,4.70
2019-02-22T10:40:08.388Z,3.30
2019-02-22T10:41:08.279Z,3.80
2019-02-22T10:42:08.179Z,3.40
2019-02-22T10:43:08.089Z,3.40
2019-02-22T10:44:17.474Z,3.00
2019-02-22T10:45:07.910Z,3.40
2019-02-22T10:46:07.793Z,3.10
2019-02-22T10:47:07.697Z,3.50
2019-02-22T10:48:07.604Z,3.30
2019-02-22T10:49:07.506Z,3.20
2019-02-22T10:50:07.427Z,2.90
2019-02-22T10:51:07.312Z,2.80
2019-02-22T10:52:07.221Z,3.30
2019-02-22T10:53:07.125Z,3.70
2019-02-22T10:54:07.021Z,3.20
2019-02-22T10:55:06.945Z,3.60
2019-02-22T10:56:06.830Z,3.50
2019-02-22T10:57:06.849Z,3.10
2019-02-22T10:58:06.634Z,3.30
2019-02-22T10:59:06.544Z,2.70
2019-02-22T11:00:06.458Z,2.80
2019-02-22T11:01:06.346Z,2.90
2019-02-22T11:02:06.286Z,3.10
2019-02-22T11:03:06.156Z,2.90
2019-02-22T11:04:06.054Z,3.00
2019-02-22T11:05:05.978Z,2.90
2019-02-22T11:06:05.876Z,2.90
2019-02-22T11:07:05.772Z,2.60
2019-02-22T11:08:05.672Z,2.80
2019-02-22T11:09:05.576Z,2.50
2019-02-22T11:10:05.500Z,2.70
2019-02-22T11:11:05.386Z,2.60
2019-02-22T11:12:05.290Z,2.60
2019-02-22T11:13:05.194Z,2.70
2019-02-22T11:14:05.102Z,2.80
2019-02-22T11:15:05.023Z,2.80
2019-02-22T11:16:04.909Z,2.10
2019-02-22T11:17:04.822Z,3.00
2019-02-22T11:18:04.720Z,2.80
2019-02-22T11:19:04.631Z,2.30
2019-02-22T11:20:04.548Z,3.00
2019-02-22T11:21:04.436Z,2.60
2019-02-22T11:22:04.345Z,2.70
2019-02-22T11:23:04.252Z,2.70
2019-02-22T11:24:04.151Z,2.90
2019-02-22T11:25:04.077Z,2.60
2019-02-22T11:26:03.963Z,2.80
2019-02-22T11:27:03.871Z,2.90
2019-02-22T11:28:03.774Z,2.70
2019-02-22T11:29:03.681Z,2.50
2019-02-22T11:30:03.588Z,2.70
2019-02-22T11:31:03.513Z,3.10
2019-02-22T11:32:03.391Z,3.10
2019-02-22T11:33:03.301Z,3.30
2019-02-22T11:34:03.201Z,3.10
2019-02-22T11:35:03.108Z,3.00
2019-02-22T11:36:03.033Z,3.30
2019-02-22T11:37:02.916Z,3.60
2019-02-22T11:38:02.826Z,3.60
2019-02-22T11:39:02.731Z,3.80
2019-02-22T11:40:02.629Z,3.80
2019-02-22T11:41:02.549Z,4.10
2019-02-22T11:42:02.441Z,4.00
2019-02-22T11:43:02.343Z,4.70
2019-02-22T11:44:02.244Z,7.40
2019-02-22T11:45:02.254Z,4.60
2019-02-22T11:46:02.074Z,4.50
2019-02-22T11:47:01.958Z,4.40
2019-02-22T11:48:08.999Z,4.10
2019-02-22T11:49:01.763Z,4.70
2019-02-22T11:50:01.670Z,4.60
2019-02-22T11:51:01.589Z,4.30
2019-02-22T11:52:01.580Z,4.00
2019-02-22T11:53:01.379Z,4.50
2019-02-22T11:54:01.284Z,4.30
2019-02-22T11:55:01.211Z,4.20
2019-02-22T11:56:01.108Z,4.90
2019-02-22T11:57:01.023Z,4.50
2019-02-22T11:58:00.899Z,4.70
2019-02-22T11:59:00.901Z,4.80
2019-02-22T12:00:00.712Z,4.90
2019-02-22T12:01:00.625Z,5.20
2019-02-22T12:02:00.515Z,5.10
2019-02-22T12:03:12.229Z,5.00
2019-02-22T12:04:00.318Z,5.60
2019-02-22T12:05:00.243Z,5.80
2019-02-22T12:06:00.140Z,5.40
2019-02-22T12:07:00.027Z,5.70
2019-02-22T12:07:59.930Z,5.50
2019-02-22T12:08:59.832Z,5.80
2019-02-22T12:09:59.737Z,6.30
2019-02-22T12:10:59.654Z,6.10
2019-02-22T12:11:59.546Z,5.90
2019-02-22T12:12:59.445Z,5.40
2019-02-22T12:13:59.345Z,5.70
2019-02-22T12:14:59.252Z,5.40
2019-02-22T12:15:59.168Z,5.30
2019-02-22T12:16:59.061Z,5.20
2019-02-22T12:17:58.956Z,5.60
2019-02-22T12:18:58.859Z,5.40
2019-02-22T12:19:58.762Z,5.10
2019-02-22T12:20:58.685Z,4.70
2019-02-22T12:21:58.569Z,4.60
2019-02-22T12:22:58.468Z,4.80
2019-02-22T12:23:58.369Z,4.40
2019-02-22T12:24:58.277Z,5.70
2019-02-22T12:25:58.194Z,5.50
2019-02-22T12:26:58.098Z,5.40
2019-02-22T12:27:57.986Z,6.00
2019-02-22T12:28:57.883Z,5.80
2019-02-22T12:29:57.786Z,6.20
2019-02-22T12:30:57.720Z,6.60
2019-02-22T12:31:57.605Z,7.10
2019-02-22T12:32:57.491Z,6.80
2019-02-22T12:33:57.397Z,6.40
2019-02-22T12:34:57.297Z,7.00
2019-02-22T12:35:57.216Z,6.80
2019-02-22T12:36:57.099Z,7.00
2019-02-22T12:37:57.004Z,7.60
2019-02-22T12:38:56.903Z,7.50
2019-02-22T12:39:56.808Z,7.80
2019-02-22T12:40:56.723Z,8.10
2019-02-22T12:41:56.608Z,8.20
2019-02-22T12:42:56.509Z,7.60
2019-02-22T12:43:56.414Z,8.10
2019-02-22T12:45:02.930Z,8.60
2019-02-22T12:45:56.230Z,9.70
2019-02-22T12:46:56.115Z,9.90
2019-02-22T12:47:56.017Z,9.80
2019-02-22T12:48:55.921Z,9.70
2019-02-22T12:49:55.822Z,10.70
2019-02-22T12:50:55.743Z,10.10